createdAt,value
2018-03-21T00:00:40.099Z,271
2018-03-21T00:01:47.293Z,271
2018-03-21T00:02:54.490Z,270
2018-03-21T00:04:01.414Z,270
2018-03-21T00:05:08.601Z,271
2018-03-21T00:06:15.526Z,270
2018-03-21T00:07:22.445Z,271
2018-03-21T00:08:29.364Z,271
2018-03-21T00:09:36.290Z,271
2018-03-21T00:10:43.216Z,271
2018-03-21T00:11:50.138Z,271
2018-03-21T00:12:58.150Z,271
2018-03-21T00:14:04.793Z,271
2018-03-21T00:15:11.989Z,271
2018-03-21T00:16:19.408Z,271
2018-03-21T00:17:26.608Z,271
2018-03-21T00:18:33.251Z,271
2018-03-21T00:19:40.169Z,271
2018-03-21T00:20:47.092Z,271
2018-03-21T00:21:54.292Z,271
2018-03-21T00:23:01.213Z,270
2018-03-21T00:24:08.126Z,271
2018-03-21T00:25:14.769Z,271
2018-03-21T00:26:21.972Z,271
2018-03-21T00:27:28.612Z,270
2018-03-21T00:28:35.807Z,271
2018-03-21T00:29:42.998Z,271
2018-03-21T00:30:50.228Z,271
2018-03-21T00:31:57.427Z,271
2018-03-21T00:33:04.060Z,271
2018-03-21T00:34:10.707Z,271
2018-03-21T00:35:17.629Z,271
2018-03-21T00:36:24.818Z,271
2018-03-21T00:37:46.112Z,270
2018-03-21T00:38:53.304Z,270
2018-03-21T00:40:00.496Z,270
2018-03-21T00:41:07.418Z,271
2018-03-21T00:42:14.329Z,270
2018-03-21T00:43:21.531Z,271
2018-03-21T00:44:28.719Z,270
2018-03-21T00:45:35.911Z,270
2018-03-21T00:46:43.116Z,270
2018-03-21T00:47:50.300Z,270
2018-03-21T00:48:57.220Z,270
2018-03-21T00:50:04.136Z,270
2018-03-21T00:51:11.329Z,269
2018-03-21T00:52:18.243Z,270
2018-03-21T00:53:24.894Z,270
2018-03-21T00:54:31.816Z,270
2018-03-21T00:55:39.007Z,270
2018-03-21T00:56:46.201Z,269
2018-03-21T00:57:53.391Z,270
2018-03-21T00:59:00.581Z,270
2018-03-21T01:00:07.776Z,270
2018-03-21T01:01:14.968Z,270
2018-03-21T01:02:22.163Z,270
2018-03-21T01:03:29.368Z,269
2018-03-21T01:04:36.559Z,270
2018-03-21T01:05:43.764Z,270
2018-03-21T01:06:50.413Z,270
2018-03-21T01:07:57.601Z,270
2018-03-21T01:09:04.797Z,270
2018-03-21T01:10:11.441Z,270
2018-03-21T01:11:18.634Z,270
2018-03-21T01:12:25.827Z,270
2018-03-21T01:13:33.018Z,270
2018-03-21T01:14:39.930Z,270
2018-03-21T01:15:47.124Z,270
2018-03-21T01:16:53.777Z,270
2018-03-21T01:18:00.144Z,270
2018-03-21T01:19:07.069Z,270
2018-03-21T01:20:14.245Z,271
2018-03-21T01:21:21.439Z,270
2018-03-21T01:22:28.350Z,269
2018-03-21T01:23:50.187Z,269
2018-03-21T01:24:57.104Z,269
2018-03-21T01:26:04.306Z,269
2018-03-21T01:27:11.218Z,269
2018-03-21T01:28:18.404Z,269
2018-03-21T01:29:25.043Z,269
2018-03-21T01:30:32.233Z,269
2018-03-21T01:31:39.149Z,269
2018-03-21T01:32:46.073Z,269
2018-03-21T01:33:52.981Z,269
2018-03-21T01:35:00.178Z,268
2018-03-21T01:36:07.372Z,268
2018-03-21T01:37:14.282Z,268
2018-03-21T01:38:21.482Z,269
2018-03-21T01:39:28.403Z,268
2018-03-21T01:40:35.598Z,269
2018-03-21T01:41:42.281Z,269
2018-03-21T01:42:49.208Z,269
2018-03-21T01:43:55.849Z,269
2018-03-21T01:45:02.487Z,268
2018-03-21T01:46:09.421Z,269
2018-03-21T01:47:16.618Z,268
2018-03-21T01:48:23.537Z,268
2018-03-21T01:49:30.176Z,267
2018-03-21T01:50:37.088Z,268
2018-03-21T01:51:43.460Z,268
2018-03-21T01:52:50.096Z,267
2018-03-21T01:53:57.297Z,268
2018-03-21T01:55:04.489Z,267
2018-03-21T01:56:11.475Z,268
2018-03-21T01:57:18.410Z,267
2018-03-21T01:58:25.344Z,267
2018-03-21T01:59:31.972Z,267
2018-03-21T02:00:39.165Z,267
2018-03-21T02:01:46.361Z,267
2018-03-21T02:02:53.283Z,267
2018-03-21T02:04:00.479Z,268
2018-03-21T02:05:07.669Z,268
2018-03-21T02:06:14.861Z,267
2018-03-21T02:07:22.055Z,268
2018-03-21T02:08:28.971Z,268
2018-03-21T02:09:35.899Z,268
2018-03-21T02:10:42.538Z,267
2018-03-21T02:11:49.456Z,267
2018-03-21T02:12:56.651Z,267
2018-03-21T02:14:03.571Z,267
2018-03-21T02:15:10.496Z,267
2018-03-21T02:16:17.422Z,267
2018-03-21T02:17:24.335Z,267
2018-03-21T02:18:31.536Z,267
2018-03-21T02:19:38.729Z,267
2018-03-21T02:20:45.918Z,267
2018-03-21T02:21:52.834Z,267
2018-03-21T02:22:59.483Z,267
2018-03-21T02:24:06.680Z,267
2018-03-21T02:25:13.594Z,266
2018-03-21T02:26:20.512Z,267
2018-03-21T02:27:27.433Z,266
2018-03-21T02:28:34.361Z,266
2018-03-21T02:29:41.004Z,266
2018-03-21T02:30:47.641Z,266
2018-03-21T02:31:54.828Z,267
2018-03-21T02:33:01.749Z,267
2018-03-21T02:34:08.667Z,267
2018-03-21T02:35:15.589Z,267
2018-03-21T02:36:21.955Z,267
2018-03-21T02:37:28.874Z,267
2018-03-21T02:38:36.106Z,267
2018-03-21T02:39:43.007Z,266
2018-03-21T02:40:50.209Z,267
2018-03-21T02:41:57.408Z,267
2018-03-21T02:43:04.323Z,267
2018-03-21T02:44:11.237Z,267
2018-03-21T02:45:18.430Z,267
2018-03-21T02:46:25.351Z,267
2018-03-21T02:47:32.534Z,267
2018-03-21T02:48:39.452Z,267
2018-03-21T02:49:46.804Z,268
2018-03-21T02:50:53.996Z,267
2018-03-21T02:52:01.191Z,267
2018-03-21T02:53:08.104Z,267
2018-03-21T02:54:15.297Z,267
2018-03-21T02:55:22.495Z,267
2018-03-21T02:56:29.690Z,267
2018-03-21T02:57:36.887Z,267
2018-03-21T02:58:44.077Z,267
2018-03-21T02:59:51.268Z,267
2018-03-21T03:00:58.458Z,267
2018-03-21T03:02:05.394Z,267
2018-03-21T03:03:12.302Z,267
2018-03-21T03:04:19.219Z,267
2018-03-21T03:05:26.408Z,267
2018-03-21T03:06:33.609Z,267
2018-03-21T03:07:40.577Z,267
2018-03-21T03:08:47.220Z,267
2018-03-21T03:09:54.419Z,267
2018-03-21T03:11:01.331Z,267
2018-03-21T03:12:07.993Z,267
2018-03-21T03:13:15.200Z,268
2018-03-21T03:14:21.837Z,268
2018-03-21T03:15:28.758Z,268
2018-03-21T03:16:35.952Z,268
2018-03-21T03:17:43.141Z,268
2018-03-21T03:18:50.059Z,268
2018-03-21T03:19:57.253Z,267
2018-03-21T03:21:04.168Z,267
2018-03-21T03:22:10.831Z,267
2018-03-21T03:23:17.730Z,267
2018-03-21T03:24:24.645Z,267
2018-03-21T03:25:31.842Z,268
2018-03-21T03:26:38.482Z,268
2018-03-21T03:27:44.571Z,268
2018-03-21T03:28:51.482Z,268
2018-03-21T03:29:58.673Z,267
2018-03-21T03:31:05.607Z,268
2018-03-21T03:32:12.522Z,268
2018-03-21T03:33:19.522Z,268
2018-03-21T03:34:26.730Z,268
2018-03-21T03:35:33.383Z,268
2018-03-21T03:36:40.587Z,268
2018-03-21T03:37:47.781Z,268
2018-03-21T03:38:54.701Z,268
2018-03-21T03:40:01.620Z,268
2018-03-21T03:41:08.810Z,268
2018-03-21T03:42:16.005Z,268
2018-03-21T03:43:22.931Z,268
2018-03-21T03:44:29.892Z,268
2018-03-21T03:45:37.082Z,268
2018-03-21T03:46:43.999Z,268
2018-03-21T03:47:50.920Z,268
2018-03-21T03:48:58.116Z,267
2018-03-21T03:50:05.307Z,268
2018-03-21T03:51:12.495Z,267
2018-03-21T03:52:19.683Z,267
2018-03-21T03:53:26.871Z,267
2018-03-21T03:54:34.084Z,267
2018-03-21T03:55:40.999Z,267
2018-03-21T03:56:48.190Z,267
2018-03-21T03:57:55.119Z,267
2018-03-21T03:59:02.077Z,267
2018-03-21T04:00:09.256Z,268
2018-03-21T04:01:16.657Z,268
2018-03-21T04:02:23.853Z,268
2018-03-21T04:03:31.075Z,268
2018-03-21T04:04:38.272Z,268
2018-03-21T04:05:45.463Z,268
2018-03-21T04:06:52.652Z,268
2018-03-21T04:07:59.566Z,268
2018-03-21T04:09:06.754Z,268
2018-03-21T04:10:13.394Z,267
2018-03-21T04:11:20.311Z,268
2018-03-21T04:12:27.227Z,267
2018-03-21T04:13:34.150Z,267
2018-03-21T04:14:41.062Z,267
2018-03-21T04:15:48.253Z,268
2018-03-21T04:16:55.446Z,268
2018-03-21T04:18:02.363Z,268
2018-03-21T04:19:09.287Z,268
2018-03-21T04:20:16.475Z,268
2018-03-21T04:21:23.666Z,268
2018-03-21T04:22:30.861Z,268
2018-03-21T04:23:38.047Z,268
2018-03-21T04:24:44.971Z,268
2018-03-21T04:25:51.894Z,268
2018-03-21T04:26:59.083Z,268
2018-03-21T04:28:06.276Z,268
2018-03-21T04:29:13.473Z,267
2018-03-21T04:30:20.393Z,268
2018-03-21T04:31:27.588Z,268
2018-03-21T04:32:34.501Z,268
2018-03-21T04:33:41.418Z,268
2018-03-21T04:34:47.775Z,268
2018-03-21T04:35:54.981Z,267
2018-03-21T04:37:02.172Z,267
2018-03-21T04:38:08.821Z,268
2018-03-21T04:39:15.736Z,268
2018-03-21T04:40:22.652Z,268
2018-03-21T04:41:29.575Z,268
2018-03-21T04:42:36.216Z,268
2018-03-21T04:43:43.410Z,268
2018-03-21T04:44:50.601Z,268
2018-03-21T04:45:57.788Z,268
2018-03-21T04:47:04.988Z,269
2018-03-21T04:48:12.187Z,269
2018-03-21T04:49:19.383Z,269
2018-03-21T04:50:26.293Z,269
2018-03-21T04:51:33.489Z,268
2018-03-21T04:52:40.685Z,268
2018-03-21T04:53:47.646Z,268
2018-03-21T04:54:54.834Z,268
2018-03-21T04:56:02.027Z,268
2018-03-21T04:57:08.667Z,268
2018-03-21T04:58:15.589Z,268
2018-03-21T04:59:22.501Z,268
2018-03-21T05:00:29.418Z,268
2018-03-21T05:01:36.337Z,268
2018-03-21T05:02:43.251Z,268
2018-03-21T05:03:49.891Z,268
2018-03-21T05:04:57.080Z,268
2018-03-21T05:06:04.276Z,268
2018-03-21T05:07:11.470Z,268
2018-03-21T05:08:18.662Z,268
2018-03-21T05:09:25.861Z,268
2018-03-21T05:10:33.052Z,268
2018-03-21T05:11:40.246Z,269
2018-03-21T05:12:47.437Z,269
2018-03-21T05:13:54.631Z,269
2018-03-21T05:15:01.823Z,270
2018-03-21T05:16:09.017Z,269
2018-03-21T05:17:16.214Z,269
2018-03-21T05:18:23.409Z,269
2018-03-21T05:19:30.596Z,269
2018-03-21T05:20:38.018Z,269
2018-03-21T05:21:45.212Z,270
2018-03-21T05:22:52.408Z,270
2018-03-21T05:23:59.600Z,270
2018-03-21T05:25:06.790Z,270
2018-03-21T05:26:13.984Z,270
2018-03-21T05:27:20.932Z,269
2018-03-21T05:28:28.132Z,269
2018-03-21T05:29:35.050Z,269
2018-03-21T05:30:41.969Z,269
2018-03-21T05:31:48.914Z,269
2018-03-21T05:32:56.114Z,269
2018-03-21T05:34:03.306Z,269
2018-03-21T05:35:09.938Z,268
2018-03-21T05:36:16.851Z,268
2018-03-21T05:37:24.049Z,269
2018-03-21T05:38:31.243Z,268
2018-03-21T05:39:38.431Z,268
2018-03-21T05:40:45.349Z,268
2018-03-21T05:41:52.543Z,268
2018-03-21T05:42:59.459Z,268
2018-03-21T05:44:06.144Z,268
2018-03-21T05:45:13.063Z,268
2018-03-21T05:46:19.988Z,268
2018-03-21T05:47:26.914Z,268
2018-03-21T05:48:33.833Z,268
2018-03-21T05:49:41.023Z,268
2018-03-21T05:50:47.938Z,268
2018-03-21T05:51:55.135Z,268
2018-03-21T05:53:02.545Z,267
2018-03-21T05:54:09.738Z,267
2018-03-21T05:55:16.664Z,267
2018-03-21T05:56:23.857Z,267
2018-03-21T05:57:31.056Z,266
2018-03-21T05:58:37.707Z,266
2018-03-21T05:59:44.623Z,266
2018-03-21T06:00:51.822Z,267
2018-03-21T06:01:58.743Z,266
2018-03-21T06:03:05.933Z,266
2018-03-21T06:04:12.850Z,266
2018-03-21T06:05:20.082Z,266
2018-03-21T06:06:27.276Z,266
2018-03-21T06:07:34.195Z,266
2018-03-21T06:08:41.469Z,265
2018-03-21T06:09:48.754Z,265
2018-03-21T06:10:55.389Z,266
2018-03-21T06:12:02.589Z,265
2018-03-21T06:13:09.784Z,265
2018-03-21T06:14:16.983Z,265
2018-03-21T06:15:23.910Z,265
2018-03-21T06:16:31.344Z,265
2018-03-21T06:17:38.529Z,265
2018-03-21T06:18:45.729Z,265
2018-03-21T06:19:52.924Z,264
2018-03-21T06:20:59.843Z,264
2018-03-21T06:22:07.078Z,264
2018-03-21T06:23:14.282Z,264
2018-03-21T06:24:21.204Z,264
2018-03-21T06:25:28.123Z,264
2018-03-21T06:26:35.035Z,264
2018-03-21T06:27:41.972Z,264
2018-03-21T06:28:49.166Z,264
2018-03-21T06:29:56.357Z,264
2018-03-21T06:31:03.553Z,263
2018-03-21T06:32:10.473Z,263
2018-03-21T06:33:17.391Z,263
2018-03-21T06:34:24.595Z,263
2018-03-21T06:35:31.539Z,263
2018-03-21T06:36:38.455Z,263
2018-03-21T06:37:45.376Z,263
2018-03-21T06:38:52.569Z,263
2018-03-21T06:39:59.497Z,263
2018-03-21T06:41:06.687Z,263
2018-03-21T06:42:13.611Z,263
2018-03-21T06:43:20.801Z,263
2018-03-21T06:44:27.717Z,263
2018-03-21T06:45:34.906Z,262
2018-03-21T06:46:41.831Z,262
2018-03-21T06:47:49.025Z,262
2018-03-21T06:48:55.944Z,262
2018-03-21T06:50:02.978Z,262
2018-03-21T06:51:10.215Z,262
2018-03-21T06:52:17.411Z,262
2018-03-21T06:53:24.606Z,262
2018-03-21T06:54:31.245Z,262
2018-03-21T06:55:38.204Z,262
2018-03-21T06:56:44.603Z,262
2018-03-21T06:57:51.799Z,262
2018-03-21T06:58:58.730Z,262
2018-03-21T07:00:05.653Z,262
2018-03-21T07:01:12.849Z,261
2018-03-21T07:02:19.495Z,262
2018-03-21T07:03:26.409Z,261
2018-03-21T07:04:33.051Z,261
2018-03-21T07:05:39.973Z,261
2018-03-21T07:06:46.893Z,261
2018-03-21T07:07:53.818Z,261
2018-03-21T07:09:00.454Z,261
2018-03-21T07:10:07.644Z,261
2018-03-21T07:11:14.292Z,261
2018-03-21T07:12:20.938Z,261
2018-03-21T07:13:28.135Z,261
2018-03-21T07:14:35.056Z,261
2018-03-21T07:15:42.251Z,261
2018-03-21T07:16:49.172Z,261
2018-03-21T07:17:56.085Z,261
2018-03-21T07:19:03.012Z,261
2018-03-21T07:20:10.260Z,260
2018-03-21T07:21:17.456Z,261
2018-03-21T07:22:23.831Z,261
2018-03-21T07:23:30.474Z,260
2018-03-21T07:24:37.112Z,260
2018-03-21T07:25:44.031Z,261
2018-03-21T07:26:50.401Z,260
2018-03-21T07:27:57.557Z,260
2018-03-21T07:29:04.745Z,260
2018-03-21T07:30:11.122Z,261
2018-03-21T07:31:18.346Z,260
2018-03-21T07:32:24.989Z,260
2018-03-21T07:33:32.052Z,260
2018-03-21T07:34:39.243Z,260
2018-03-21T07:35:46.431Z,260
2018-03-21T07:36:53.624Z,260
2018-03-21T07:38:00.271Z,260
2018-03-21T07:39:07.050Z,260
2018-03-21T07:40:13.731Z,260
2018-03-21T07:41:20.934Z,260
2018-03-21T07:42:28.129Z,260
2018-03-21T07:43:35.053Z,260
2018-03-21T07:44:42.247Z,260
2018-03-21T07:45:49.176Z,260
2018-03-21T07:46:56.104Z,260
2018-03-21T07:48:03.040Z,260
2018-03-21T07:49:10.240Z,260
2018-03-21T07:50:17.431Z,260
2018-03-21T07:51:24.843Z,260
2018-03-21T07:52:32.029Z,260
2018-03-21T07:53:38.672Z,261
2018-03-21T07:54:45.593Z,260
2018-03-21T07:55:52.515Z,261
2018-03-21T07:56:59.712Z,260
2018-03-21T07:58:06.908Z,260
2018-03-21T07:59:14.108Z,261
2018-03-21T08:00:21.301Z,261
2018-03-21T08:01:28.219Z,260
2018-03-21T08:02:35.139Z,261
2018-03-21T08:03:42.331Z,261
2018-03-21T08:04:49.529Z,260
2018-03-21T08:05:56.730Z,261
2018-03-21T08:07:03.955Z,261
2018-03-21T08:08:11.157Z,261
2018-03-21T08:09:18.586Z,261
2018-03-21T08:10:25.516Z,261
2018-03-21T08:11:32.162Z,261
2018-03-21T08:12:39.371Z,262
2018-03-21T08:13:46.287Z,262
2018-03-21T08:14:53.206Z,261
2018-03-21T08:16:00.125Z,262
2018-03-21T08:17:07.330Z,261
2018-03-21T08:18:14.248Z,262
2018-03-21T08:19:21.680Z,262
2018-03-21T08:20:28.602Z,262
2018-03-21T08:21:35.535Z,262
2018-03-21T08:22:42.190Z,262
2018-03-21T08:23:49.109Z,263
2018-03-21T08:24:56.039Z,263
2018-03-21T08:26:02.962Z,263
2018-03-21T08:27:09.614Z,263
2018-03-21T08:28:16.817Z,263
2018-03-21T08:29:23.461Z,263
2018-03-21T08:30:30.385Z,250
2018-03-21T08:31:37.046Z,253
2018-03-21T08:32:43.690Z,253
2018-03-21T08:33:50.886Z,254
2018-03-21T08:35:12.458Z,254
2018-03-21T08:36:19.662Z,256
2018-03-21T08:37:26.588Z,256
2018-03-21T08:38:33.510Z,256
2018-03-21T08:39:40.437Z,257
2018-03-21T08:40:47.630Z,256
2018-03-21T08:41:54.549Z,258
2018-03-21T08:43:01.479Z,258
2018-03-21T08:44:08.680Z,259
2018-03-21T08:45:15.328Z,261
2018-03-21T08:46:36.900Z,261
2018-03-21T08:47:44.094Z,264
2018-03-21T08:48:51.323Z,266
2018-03-21T08:49:58.232Z,268
2018-03-21T08:51:05.157Z,268
2018-03-21T08:52:12.119Z,269
2018-03-21T08:53:19.316Z,271
2018-03-21T08:54:25.969Z,273
2018-03-21T08:55:33.168Z,273
2018-03-21T08:56:40.089Z,275
2018-03-21T08:57:47.290Z,275
2018-03-21T08:58:54.211Z,275
2018-03-21T09:00:00.871Z,276
2018-03-21T09:01:08.066Z,277
2018-03-21T09:02:14.992Z,277
2018-03-21T09:03:21.640Z,277
2018-03-21T09:04:28.561Z,277
2018-03-21T09:05:35.761Z,277
2018-03-21T09:06:42.688Z,277
2018-03-21T09:07:49.611Z,277
2018-03-21T09:08:56.806Z,277
2018-03-21T09:10:03.196Z,277
2018-03-21T09:11:10.121Z,276
2018-03-21T09:12:17.318Z,276
2018-03-21T09:13:24.527Z,276
2018-03-21T09:14:31.455Z,275
2018-03-21T09:15:38.383Z,275
2018-03-21T09:16:45.572Z,275
2018-03-21T09:17:52.497Z,275
2018-03-21T09:18:59.443Z,276
2018-03-21T09:20:06.644Z,278
2018-03-21T09:21:13.842Z,279
2018-03-21T09:22:21.650Z,279
2018-03-21T09:23:29.085Z,278
2018-03-21T09:24:36.285Z,279
2018-03-21T09:25:43.485Z,281
2018-03-21T09:26:50.424Z,281
2018-03-21T09:27:57.370Z,280
2018-03-21T09:29:04.578Z,276
2018-03-21T09:30:11.778Z,276
2018-03-21T09:31:18.702Z,276
2018-03-21T09:32:25.623Z,275
2018-03-21T09:33:32.828Z,275
2018-03-21T09:34:39.478Z,275
2018-03-21T09:35:46.686Z,274
2018-03-21T09:36:53.634Z,274
2018-03-21T09:38:00.305Z,273
2018-03-21T09:39:07.280Z,273
2018-03-21T09:40:13.963Z,275
2018-03-21T09:41:20.616Z,273
2018-03-21T09:42:27.821Z,274
2018-03-21T09:43:34.742Z,273
2018-03-21T09:44:41.946Z,272
2018-03-21T09:45:49.154Z,272
2018-03-21T09:46:56.078Z,271
2018-03-21T09:48:03.276Z,268
2018-03-21T09:49:09.934Z,270
2018-03-21T09:50:16.854Z,270
2018-03-21T09:51:24.104Z,269
2018-03-21T09:52:30.754Z,267
2018-03-21T09:53:37.676Z,266
2018-03-21T09:54:44.879Z,267
2018-03-21T09:55:51.903Z,266
2018-03-21T09:56:59.102Z,264
2018-03-21T09:58:06.306Z,262
2018-03-21T09:59:13.503Z,264
2018-03-21T10:00:20.710Z,266
2018-03-21T10:01:27.634Z,266
2018-03-21T10:02:34.838Z,264
2018-03-21T10:03:42.847Z,262
2018-03-21T10:04:50.055Z,261
2018-03-21T10:05:57.253Z,262
2018-03-21T10:07:04.453Z,262
2018-03-21T10:08:11.658Z,260
2018-03-21T10:09:18.855Z,260
2018-03-21T10:10:40.706Z,259
2018-03-21T10:11:47.906Z,258
2018-03-21T10:12:54.840Z,256
2018-03-21T10:14:02.044Z,256
2018-03-21T10:15:09.245Z,255
2018-03-21T10:16:16.445Z,254
2018-03-21T10:17:23.662Z,253
2018-03-21T10:18:30.854Z,250
2018-03-21T10:19:38.057Z,195
2018-03-21T10:20:45.261Z,184
2018-03-21T10:21:52.473Z,183
2018-03-21T10:22:59.674Z,189
2018-03-21T10:24:06.886Z,192
2018-03-21T10:25:14.082Z,194
2018-03-21T10:26:21.281Z,194
2018-03-21T10:27:28.493Z,195
2018-03-21T10:28:35.682Z,196
2018-03-21T10:29:42.602Z,194
2018-03-21T10:30:49.804Z,194
2018-03-21T10:31:57.013Z,194
2018-03-21T10:33:03.938Z,193
2018-03-21T10:34:10.864Z,195
2018-03-21T10:35:18.065Z,194
2018-03-21T10:36:24.716Z,193
2018-03-21T10:37:31.649Z,195
2018-03-21T10:38:38.872Z,194
2018-03-21T10:39:45.801Z,195
2018-03-21T10:40:53.007Z,194
2018-03-21T10:42:00.206Z,194
2018-03-21T10:43:07.417Z,195
2018-03-21T10:44:14.615Z,194
2018-03-21T10:45:21.838Z,192
2018-03-21T10:46:29.034Z,192
2018-03-21T10:47:36.251Z,193
2018-03-21T10:48:43.442Z,194
2018-03-21T10:49:50.649Z,194
2018-03-21T10:50:57.856Z,193
2018-03-21T10:52:05.056Z,192
2018-03-21T10:53:12.262Z,191
2018-03-21T10:54:19.471Z,190
2018-03-21T10:55:26.397Z,191
2018-03-21T10:56:33.606Z,193
2018-03-21T10:57:40.811Z,194
2018-03-21T10:58:48.011Z,192
2018-03-21T10:59:55.258Z,192
2018-03-21T11:01:02.190Z,192
2018-03-21T11:02:09.401Z,190
2018-03-21T11:03:16.598Z,190
2018-03-21T11:04:23.808Z,188
2018-03-21T11:05:31.010Z,189
2018-03-21T11:06:37.662Z,189
2018-03-21T11:07:44.861Z,188
2018-03-21T11:08:52.066Z,188
2018-03-21T11:09:59.271Z,189
2018-03-21T11:11:05.937Z,190
2018-03-21T11:12:13.146Z,190
2018-03-21T11:13:20.351Z,188
2018-03-21T11:14:27.577Z,186
2018-03-21T11:15:34.770Z,188
2018-03-21T11:16:41.977Z,191
2018-03-21T11:17:49.182Z,192
2018-03-21T11:18:56.387Z,192
2018-03-21T11:20:03.595Z,193
2018-03-21T11:21:10.808Z,193
2018-03-21T11:22:18.014Z,190
2018-03-21T11:23:39.870Z,188
2018-03-21T11:24:47.080Z,188
2018-03-21T11:25:54.283Z,190
2018-03-21T11:27:01.492Z,189
2018-03-21T11:28:08.696Z,190
2018-03-21T11:29:15.642Z,188
2018-03-21T11:30:22.560Z,187
2018-03-21T11:31:29.485Z,188
2018-03-21T11:32:36.688Z,189
2018-03-21T11:33:43.920Z,189
2018-03-21T11:34:51.119Z,188
2018-03-21T11:35:58.329Z,188
2018-03-21T11:37:05.528Z,188
2018-03-21T11:38:12.503Z,188
2018-03-21T11:39:19.432Z,188
2018-03-21T11:40:26.638Z,188
2018-03-21T11:41:33.855Z,188
2018-03-21T11:42:41.060Z,187
2018-03-21T11:43:48.263Z,184
2018-03-21T11:44:55.498Z,181
2018-03-21T11:46:02.474Z,180
2018-03-21T11:47:09.679Z,179
2018-03-21T11:48:16.879Z,179
2018-03-21T11:49:24.097Z,179
2018-03-21T11:50:31.304Z,180
2018-03-21T11:51:38.513Z,178
2018-03-21T11:52:45.725Z,178
2018-03-21T11:53:52.660Z,177
2018-03-21T11:54:59.868Z,179
2018-03-21T11:56:06.811Z,180
2018-03-21T11:57:13.737Z,183
2018-03-21T11:58:20.946Z,183
2018-03-21T11:59:27.866Z,180
2018-03-21T12:00:35.070Z,180
2018-03-21T12:01:42.002Z,179
2018-03-21T12:02:49.278Z,178
2018-03-21T12:03:56.485Z,180
2018-03-21T12:05:03.701Z,183
2018-03-21T12:06:10.356Z,183
2018-03-21T12:07:17.255Z,182
2018-03-21T12:08:24.186Z,183
2018-03-21T12:09:31.404Z,181
2018-03-21T12:10:38.605Z,179
2018-03-21T12:11:45.262Z,177
2018-03-21T12:12:52.480Z,175
2018-03-21T12:13:59.692Z,174
2018-03-21T12:15:06.624Z,173
2018-03-21T12:16:13.833Z,173
2018-03-21T12:17:20.490Z,174
2018-03-21T12:18:27.693Z,174
2018-03-21T12:19:34.901Z,175
2018-03-21T12:20:41.836Z,175
2018-03-21T12:21:48.765Z,177
2018-03-21T12:22:55.700Z,176
2018-03-21T12:24:02.633Z,176
2018-03-21T12:25:09.839Z,175
2018-03-21T12:26:17.041Z,176
2018-03-21T12:27:24.283Z,176
2018-03-21T12:28:31.486Z,176
2018-03-21T12:29:38.422Z,175
2018-03-21T12:30:45.636Z,174
2018-03-21T12:31:52.835Z,173
2018-03-21T12:33:00.057Z,171
2018-03-21T12:34:07.254Z,170
2018-03-21T12:35:14.454Z,168
2018-03-21T12:36:21.660Z,170
2018-03-21T12:37:28.594Z,173
2018-03-21T12:38:35.804Z,174
2018-03-21T12:39:43.009Z,176
2018-03-21T12:40:50.218Z,177
2018-03-21T12:41:57.146Z,175
2018-03-21T12:43:04.072Z,174
2018-03-21T12:44:11.007Z,177
2018-03-21T12:45:17.952Z,177
2018-03-21T12:46:25.140Z,176
2018-03-21T12:47:32.083Z,173
2018-03-21T12:48:39.015Z,171
2018-03-21T12:49:45.942Z,173
2018-03-21T12:50:53.165Z,175
2018-03-21T12:52:00.091Z,176
2018-03-21T12:53:07.296Z,173
2018-03-21T12:54:14.227Z,170
2018-03-21T12:55:21.430Z,170
2018-03-21T12:56:28.088Z,168
2018-03-21T12:57:49.943Z,168
2018-03-21T12:58:56.323Z,168
2018-03-21T13:00:03.524Z,167
2018-03-21T13:01:11.140Z,165
2018-03-21T13:02:18.345Z,166
2018-03-21T13:03:25.752Z,166
2018-03-21T13:04:32.084Z,165
2018-03-21T13:05:38.755Z,164
2018-03-21T13:06:45.970Z,163
2018-03-21T13:07:53.177Z,164
2018-03-21T13:09:00.382Z,169
2018-03-21T13:10:07.314Z,172
2018-03-21T13:11:13.962Z,174
2018-03-21T13:12:20.886Z,173
2018-03-21T13:13:42.470Z,172
2018-03-21T13:14:49.673Z,172
2018-03-21T13:15:56.886Z,170
2018-03-21T13:17:04.096Z,166
2018-03-21T13:18:11.021Z,165
2018-03-21T13:19:18.221Z,164
2018-03-21T13:20:25.427Z,162
2018-03-21T13:21:32.631Z,161
2018-03-21T13:22:39.285Z,162
2018-03-21T13:23:46.492Z,161
2018-03-21T13:24:53.700Z,161
2018-03-21T13:26:00.950Z,160
2018-03-21T13:27:08.160Z,158
2018-03-21T13:28:14.825Z,158
2018-03-21T13:29:21.773Z,158
2018-03-21T13:30:28.706Z,160
2018-03-21T13:31:35.912Z,161
2018-03-21T13:32:42.843Z,160
2018-03-21T13:33:50.058Z,159
2018-03-21T13:34:57.393Z,158
2018-03-21T13:36:04.639Z,158
2018-03-21T13:37:11.845Z,155
2018-03-21T13:38:19.050Z,154
2018-03-21T13:39:25.985Z,154
2018-03-21T13:40:33.194Z,154
2018-03-21T13:41:40.405Z,152
2018-03-21T13:42:47.334Z,153
2018-03-21T13:43:54.543Z,154
2018-03-21T13:45:01.752Z,155
2018-03-21T13:46:08.684Z,155
2018-03-21T13:47:15.890Z,155
2018-03-21T13:48:23.096Z,153
2018-03-21T13:49:30.317Z,154
2018-03-21T13:50:37.553Z,153
2018-03-21T13:51:44.759Z,151
2018-03-21T13:52:51.699Z,152
2018-03-21T13:53:58.900Z,151
2018-03-21T13:55:06.101Z,149
2018-03-21T13:56:13.304Z,150
2018-03-21T13:57:20.514Z,148
2018-03-21T13:58:27.452Z,148
2018-03-21T13:59:34.391Z,152
2018-03-21T14:00:41.318Z,150
2018-03-21T14:01:48.528Z,148
2018-03-21T14:02:55.729Z,148
2018-03-21T14:04:02.943Z,151
2018-03-21T14:05:09.873Z,154
2018-03-21T14:06:16.803Z,155
2018-03-21T14:07:23.737Z,156
2018-03-21T14:08:30.944Z,153
2018-03-21T14:09:37.873Z,155
2018-03-21T14:10:45.078Z,156
2018-03-21T14:11:52.284Z,157
2018-03-21T14:12:59.216Z,154
2018-03-21T14:14:06.425Z,151
2018-03-21T14:15:13.632Z,149
2018-03-21T14:16:20.849Z,149
2018-03-21T14:17:27.770Z,149
2018-03-21T14:18:34.695Z,149
2018-03-21T14:19:41.910Z,148
2018-03-21T14:20:48.579Z,146
2018-03-21T14:21:55.508Z,146
2018-03-21T14:23:02.718Z,148
2018-03-21T14:24:09.928Z,150
2018-03-21T14:25:17.134Z,151
2018-03-21T14:26:24.068Z,152
2018-03-21T14:27:31.276Z,151
2018-03-21T14:28:38.488Z,150
2018-03-21T14:29:45.692Z,151
2018-03-21T14:30:52.619Z,153
2018-03-21T14:31:59.557Z,151
2018-03-21T14:33:06.756Z,151
2018-03-21T14:34:13.967Z,149
2018-03-21T14:35:20.905Z,146
2018-03-21T14:36:28.118Z,146
2018-03-21T14:37:35.331Z,146
2018-03-21T14:38:42.001Z,146
2018-03-21T14:39:49.208Z,144
2018-03-21T14:40:56.415Z,145
2018-03-21T14:42:03.074Z,144
2018-03-21T14:43:10.008Z,142
2018-03-21T14:44:17.221Z,140
2018-03-21T14:45:23.883Z,140
2018-03-21T14:46:30.812Z,140
2018-03-21T14:47:37.740Z,141
2018-03-21T14:48:44.690Z,142
2018-03-21T14:49:51.623Z,141
2018-03-21T14:50:58.547Z,140
2018-03-21T14:52:05.484Z,138
2018-03-21T14:53:12.417Z,137
2018-03-21T14:54:19.620Z,139
2018-03-21T14:55:26.830Z,139
2018-03-21T14:56:34.041Z,139
2018-03-21T14:57:41.091Z,139
2018-03-21T14:58:47.748Z,145
2018-03-21T14:59:54.686Z,146
2018-03-21T15:01:01.893Z,145
2018-03-21T15:02:09.105Z,142
2018-03-21T15:03:16.033Z,141
2018-03-21T15:04:22.970Z,140
2018-03-21T15:05:30.176Z,139
2018-03-21T15:06:37.388Z,139
2018-03-21T15:07:44.322Z,139
2018-03-21T15:08:51.265Z,137
2018-03-21T15:09:58.472Z,137
2018-03-21T15:11:07.138Z,138
2018-03-21T15:12:14.372Z,142
2018-03-21T15:13:21.620Z,144
2018-03-21T15:14:28.828Z,146
2018-03-21T15:15:36.045Z,146
2018-03-21T15:16:43.248Z,148
2018-03-21T15:17:49.913Z,147
2018-03-21T15:18:57.124Z,145
2018-03-21T15:20:04.059Z,144
2018-03-21T15:21:25.922Z,145
2018-03-21T15:22:33.141Z,147
2018-03-21T15:23:40.346Z,148
2018-03-21T15:24:47.556Z,148
2018-03-21T15:25:54.489Z,149